LFOC

Details ICAO LFOC
Name Chateaudun AB
Region France
Timezone Europe/Paris (UTC+1.0)
Plans Departing 7
Arriving 5
Stats Elevation 433 ft / 132 m (AMSL)
Location 48.058141° 1.376625°
Runways 1
Magnetic Variation 0.345° E
Sunrise 2017-12-16 07:40:03 UTC / 2017-12-16 08:40:03 Local
Sunset 2017-12-16 16:02:58 UTC / 2017-12-16 17:02:58 Local
Advertisement - Login to hide

Runways

ID Width Length Bearing (true) Bearing (mag) Surface Threshold Offset Overrun Length
10 148 ft / 45 m 7,532 ft / 2,296 m 98.03° 97.68° Asphalt 0 ft / 0 m 673 ft / 205 m
28 148 ft / 45 m 7,532 ft / 2,296 m 278.06° 277.71° Asphalt 0 ft / 0 m 663 ft / 202 m

Map

Weather


0- 5 10 15 20 25 30 35+ Temperature / ° C

Clouds and Precipitation
Forecast for 2017-12-16 00:00 UTC. Updated 39 minutes ago

Ground ~20,000 ft ~40,000 ft Winds

METAR

LFOC 152330Z AUTO 30009KT 9999 SCT021 BKN031 BKN038 04/02 Q1008

TAF

Not found

Frequencies

Tower 122.10 MHz TWR
Approach 122.70 MHz BRICY APP
Tower 125.62 MHz TWR
Approach 123.30 MHz GCA
Warning: Do not use this data for real-world aviation or navigation. No guarantee of current accuracy is given.